Time;durP1;ratioP1;P1;durP2;ratioP2;P2;SDS_P1;SDS_P2;PMS_P1;PMS_P2;Temp;Humidity;BMP_temperature;BMP_pressure;BME280_temperature;BME280_humidity;BME280_pressure;Samples;Min_cycle;Max_cycle;Signal;HPM_P1;HPM_P2
2023/05/16 00:02:02;;;;;;;5.28;3.33;;;13.30;99.90;;;;;;5050467;28;20237;-76
2023/05/16 00:04:29;;;;;;;6.05;4.05;;;13.20;99.90;;;;;;5050752;28;20256;-76
2023/05/16 00:06:56;;;;;;;5.53;3.92;;;13.20;99.90;;;;;;5050420;28;20702;-75
2023/05/16 00:09:22;;;;;;;5.88;3.30;;;13.20;99.90;;;;;;5050908;28;20234;-75
2023/05/16 00:11:51;;;;;;;5.10;3.10;;;13.20;99.90;;;;;;5050188;28;20238;-76
2023/05/16 00:14:18;;;;;;;7.25;3.92;;;13.20;99.90;;;;;;5050435;28;20238;-74
2023/05/16 00:16:46;;;;;;;5.38;3.53;;;13.10;99.90;;;;;;5049892;28;20248;-75
2023/05/16 00:19:13;;;;;;;6.03;3.90;;;13.10;99.90;;;;;;5050769;28;20214;-75
2023/05/16 00:21:39;;;;;;;7.15;3.65;;;13.20;99.90;;;;;;5050129;28;20736;-75
2023/05/16 00:24:07;;;;;;;4.75;3.33;;;13.20;99.90;;;;;;5050620;28;20231;-75
2023/05/16 00:26:34;;;;;;;4.88;3.42;;;13.10;99.90;;;;;;5050763;28;20642;-75
2023/05/16 00:29:02;;;;;;;7.45;3.75;;;13.20;99.90;;;;;;5049592;28;20241;-74
2023/05/16 00:31:29;;;;;;;9.20;4.10;;;13.10;99.90;;;;;;5050643;28;20235;-75
2023/05/16 00:33:56;;;;;;;8.05;3.40;;;13.10;99.90;;;;;;5050261;28;20238;-75
2023/05/16 00:36:23;;;;;;;5.97;3.40;;;13.10;99.90;;;;;;5050316;28;20277;-73
2023/05/16 00:38:50;;;;;;;8.75;3.60;;;13.10;99.90;;;;;;5049899;28;20245;-72
2023/05/16 00:41:18;;;;;;;7.43;3.63;;;13.10;99.90;;;;;;5050359;28;20249;-73
2023/05/16 00:43:44;;;;;;;6.78;4.07;;;13.10;99.90;;;;;;5049728;28;20277;-74
2023/05/16 00:46:13;;;;;;;8.77;4.25;;;13.00;99.90;;;;;;5050546;28;20199;-73
2023/05/16 00:48:40;;;;;;;5.03;3.92;;;13.10;99.90;;;;;;5050066;28;20208;-73
2023/05/16 00:51:08;;;;;;;5.68;3.75;;;13.10;99.90;;;;;;5051465;28;20207;-74
2023/05/16 00:53:35;;;;;;;3.72;3.40;;;13.00;99.90;;;;;;5054165;28;20213;-74
2023/05/16 00:56:03;;;;;;;3.85;3.20;;;13.10;99.90;;;;;;5053808;28;20242;-73
2023/05/16 00:58:30;;;;;;;5.28;3.47;;;13.00;99.90;;;;;;5053734;28;20234;-73
2023/05/16 01:00:58;;;;;;;4.40;3.97;;;13.00;99.90;;;;;;5053758;28;20617;-72
2023/05/16 01:03:26;;;;;;;8.90;3.83;;;13.00;99.90;;;;;;5053549;28;20268;-73
2023/05/16 01:05:53;;;;;;;7.20;3.90;;;13.00;99.90;;;;;;5053484;28;20207;-73
2023/05/16 01:08:20;;;;;;;6.20;3.95;;;13.00;99.90;;;;;;5053722;28;20229;-73
2023/05/16 01:10:55;;;;;;;5.57;3.55;;;13.00;99.90;;;;;;5053205;28;20230;-74
2023/05/16 01:13:30;;;;;;;7.50;3.60;;;13.00;99.90;;;;;;5053380;28;20693;-75
2023/05/16 01:16:05;;;;;;;7.68;3.95;;;12.90;99.90;;;;;;5052988;28;20270;-73
2023/05/16 01:18:42;;;;;;;11.13;3.72;;;12.90;99.90;;;;;;5053814;28;20230;-73
2023/05/16 01:21:15;;;;;;;5.22;3.67;;;12.90;99.90;;;;;;5053465;28;20604;-73
2023/05/16 01:23:56;;;;;;;6.45;4.15;;;12.90;99.90;;;;;;5053119;28;20294;-73
2023/05/16 01:26:27;;;;;;;8.85;4.18;;;12.90;99.90;;;;;;5053392;28;20238;-74
2023/05/16 01:28:54;;;;;;;6.95;3.60;;;12.90;99.90;;;;;;5052683;28;20245;-74
2023/05/16 01:31:22;;;;;;;4.18;3.83;;;12.90;99.90;;;;;;5053413;28;20235;-74
2023/05/16 01:33:50;;;;;;;7.75;4.20;;;12.90;99.90;;;;;;5052771;28;20206;-74
2023/05/16 01:36:24;;;;;;;6.53;3.60;;;12.90;99.90;;;;;;5053349;28;20234;-74
2023/05/16 01:39:01;;;;;;;7.72;3.72;;;12.90;99.90;;;;;;5052526;28;20640;-74
2023/05/16 01:41:35;;;;;;;6.47;3.47;;;12.80;99.90;;;;;;5052807;28;20666;-74
2023/05/16 01:44:07;;;;;;;8.05;3.53;;;12.80;99.90;;;;;;5052889;28;20207;-74
2023/05/16 01:46:40;;;;;;;5.85;3.28;;;12.90;99.90;;;;;;5053219;28;20249;-73
2023/05/16 01:49:16;;;;;;;4.85;3.35;;;12.80;99.90;;;;;;5052810;28;20191;-74
2023/05/16 01:51:45;;;;;;;5.90;4.10;;;12.90;99.90;;;;;;5052392;28;20208;-73
2023/05/16 01:54:14;;;;;;;5.32;4.20;;;12.90;99.90;;;;;;5052864;28;20203;-74
2023/05/16 01:56:46;;;;;;;3.80;3.38;;;12.80;99.90;;;;;;5052059;28;20273;-73
2023/05/16 01:59:14;;;;;;;7.30;3.63;;;12.80;99.90;;;;;;5052510;28;20682;-73
2023/05/16 02:01:41;;;;;;;7.05;4.18;;;12.80;99.90;;;;;;5052314;28;20300;-73
2023/05/16 02:04:08;;;;;;;6.57;3.42;;;12.80;99.90;;;;;;5052013;28;20245;-73
2023/05/16 02:06:35;;;;;;;6.28;3.97;;;12.80;99.90;;;;;;5053001;28;20298;-73
2023/05/16 02:09:02;;;;;;;5.90;3.97;;;12.80;99.90;;;;;;5052466;28;20267;-73
2023/05/16 02:11:29;;;;;;;4.53;4.13;;;12.80;99.90;;;;;;5052555;28;20202;-72
2023/05/16 02:13:57;;;;;;;5.63;3.65;;;12.80;99.90;;;;;;5052282;28;20894;-73
2023/05/16 02:16:24;;;;;;;5.05;3.38;;;12.80;99.90;;;;;;5052332;28;20266;-73
2023/05/16 02:18:51;;;;;;;7.50;3.80;;;12.80;99.90;;;;;;5052093;28;20199;-73
2023/05/16 02:21:18;;;;;;;9.85;4.03;;;12.80;99.90;;;;;;5052273;28;20234;-73
2023/05/16 02:23:45;;;;;;;5.95;3.28;;;12.80;99.90;;;;;;5051780;28;20235;-73
2023/05/16 02:26:12;;;;;;;6.63;3.33;;;12.80;99.90;;;;;;5052072;28;20242;-73
2023/05/16 02:28:38;;;;;;;4.32;3.80;;;12.80;99.90;;;;;;5051672;28;20573;-72
2023/05/16 02:31:07;;;;;;;6.05;3.33;;;12.70;99.90;;;;;;5052679;28;20242;-73
2023/05/16 02:33:34;;;;;;;6.15;3.78;;;12.70;99.90;;;;;;5052351;28;20260;-72
2023/05/16 02:36:01;;;;;;;4.65;3.03;;;12.70;99.90;;;;;;5051674;28;20227;-72
2023/05/16 02:38:28;;;;;;;5.20;3.95;;;12.80;99.90;;;;;;5051950;28;20238;-73
2023/05/16 02:40:55;;;;;;;5.75;4.57;;;12.70;99.90;;;;;;5051427;28;20238;-72
2023/05/16 02:43:22;;;;;;;5.00;3.67;;;12.60;99.90;;;;;;5052015;28;20242;-72
2023/05/16 02:45:49;;;;;;;4.28;3.88;;;12.60;99.90;;;;;;5051561;28;20289;-72
2023/05/16 02:48:17;;;;;;;6.63;3.75;;;12.60;99.90;;;;;;5051708;28;20203;-73
2023/05/16 02:50:44;;;;;;;5.32;3.67;;;12.60;99.90;;;;;;5051374;28;20234;-72
2023/05/16 02:53:11;;;;;;;5.00;3.78;;;12.60;99.90;;;;;;5051490;28;20249;-73
2023/05/16 02:55:38;;;;;;;4.50;3.83;;;12.70;99.90;;;;;;5051139;28;20297;-73
2023/05/16 02:58:05;;;;;;;3.97;3.58;;;12.70;99.90;;;;;;5051999;28;20203;-72
2023/05/16 03:00:31;;;;;;;7.70;4.00;;;12.60;99.90;;;;;;5052024;28;20242;-72
2023/05/16 03:02:58;;;;;;;4.22;3.60;;;12.60;99.90;;;;;;5050994;28;20686;-73
2023/05/16 03:05:27;;;;;;;4.78;3.17;;;12.60;99.90;;;;;;5051183;28;20203;-72
2023/05/16 03:07:53;;;;;;;4.68;3.00;;;12.60;99.90;;;;;;5051271;28;20234;-73
2023/05/16 03:10:20;;;;;;;6.25;4.00;;;12.50;99.90;;;;;;5051088;28;20249;-73
2023/05/16 03:12:47;;;;;;;4.22;3.83;;;12.50;99.90;;;;;;5050872;28;20242;-73
2023/05/16 03:15:15;;;;;;;4.22;3.78;;;12.60;99.90;;;;;;5050509;28;20238;-72
2023/05/16 03:17:42;;;;;;;3.47;3.17;;;12.50;99.90;;;;;;5050674;28;20245;-73
2023/05/16 03:20:11;;;;;;;3.60;3.17;;;12.50;99.90;;;;;;5051326;28;20697;-72
2023/05/16 03:22:39;;;;;;;4.13;3.72;;;12.50;99.90;;;;;;5051028;28;20207;-72
2023/05/16 03:25:07;;;;;;;3.88;3.50;;;12.50;99.90;;;;;;5051242;28;20207;-73
2023/05/16 03:27:34;;;;;;;3.92;3.33;;;12.50;99.90;;;;;;5051258;28;20211;-72
2023/05/16 03:30:01;;;;;;;4.38;3.60;;;12.50;99.90;;;;;;5050768;28;20812;-72
2023/05/16 03:32:28;;;;;;;5.22;2.60;;;12.50;99.90;;;;;;5051008;28;20202;-72
2023/05/16 03:34:55;;;;;;;4.68;3.08;;;12.50;99.90;;;;;;5050551;28;20238;-72
2023/05/16 03:37:21;;;;;;;4.50;3.78;;;12.50;99.90;;;;;;5050809;28;20266;-72
2023/05/16 03:39:50;;;;;;;4.13;3.78;;;12.50;99.90;;;;;;5050573;28;20238;-72
2023/05/16 03:42:17;;;;;;;4.28;3.42;;;12.40;99.90;;;;;;5050907;28;20581;-73
2023/05/16 03:44:44;;;;;;;5.93;3.30;;;12.50;99.90;;;;;;5050601;28;20214;-72
2023/05/16 03:47:11;;;;;;;3.67;3.22;;;12.50;99.90;;;;;;5050790;28;20203;-72
2023/05/16 03:49:38;;;;;;;3.17;2.75;;;12.60;99.90;;;;;;5050755;28;20234;-72
2023/05/16 03:52:05;;;;;;;4.40;3.13;;;12.50;99.90;;;;;;5050700;28;20674;-72
2023/05/16 03:54:32;;;;;;;3.38;2.78;;;12.50;99.90;;;;;;5051093;28;20238;-72
2023/05/16 03:57:00;;;;;;;5.20;3.35;;;12.50;99.90;;;;;;5050353;28;20332;-72
2023/05/16 03:59:27;;;;;;;3.75;3.40;;;12.50;99.90;;;;;;5050720;28;20238;-72
2023/05/16 04:01:54;;;;;;;4.00;2.95;;;12.50;99.90;;;;;;5050138;28;20677;-72
2023/05/16 04:04:21;;;;;;;9.52;3.13;;;12.50;99.90;;;;;;5050809;28;20253;-72
2023/05/16 04:06:48;;;;;;;8.80;4.20;;;12.50;99.90;;;;;;5050197;28;20246;-72
2023/05/16 04:09:15;;;;;;;3.92;3.53;;;12.50;99.90;;;;;;5050639;28;20246;-72
2023/05/16 04:11:42;;;;;;;3.20;2.90;;;12.50;99.90;;;;;;5050192;28;20241;-72
2023/05/16 04:14:10;;;;;;;3.85;2.67;;;12.50;99.90;;;;;;5050619;28;20199;-73
2023/05/16 04:16:37;;;;;;;3.17;2.88;;;12.50;99.90;;;;;;5050488;28;20263;-72
2023/05/16 04:19:04;;;;;;;3.47;3.13;;;12.50;99.90;;;;;;5051045;28;20203;-72
2023/05/16 04:21:31;;;;;;;3.42;3.13;;;12.50;99.90;;;;;;5050490;28;20247;-73
2023/05/16 04:23:58;;;;;;;3.63;2.83;;;12.50;99.90;;;;;;5050089;28;20733;-72
2023/05/16 04:26:26;;;;;;;5.72;2.72;;;12.50;99.90;;;;;;5052205;28;20207;-73
2023/05/16 04:28:53;;;;;;;3.50;3.20;;;12.50;99.90;;;;;;5053819;28;20305;-72
2023/05/16 04:31:22;;;;;;;4.57;3.92;;;12.50;99.90;;;;;;5054540;28;20249;-72
2023/05/16 04:33:49;;;;;;;5.03;2.83;;;12.50;99.90;;;;;;5054103;28;20210;-72
2023/05/16 04:36:16;;;;;;;4.03;2.83;;;12.50;99.90;;;;;;5054101;28;20234;-71
2023/05/16 04:38:43;;;;;;;3.60;2.92;;;12.50;99.90;;;;;;5053814;28;20261;-72
2023/05/16 04:41:10;;;;;;;3.40;2.65;;;12.40;99.90;;;;;;5053911;28;20207;-72
2023/05/16 04:43:36;;;;;;;2.67;2.47;;;12.40;99.90;;;;;;5054429;28;20227;-72
2023/05/16 04:46:03;;;;;;;5.47;3.17;;;12.50;99.90;;;;;;5054558;28;20206;-71
2023/05/16 04:48:32;;;;;;;4.57;2.85;;;12.50;99.90;;;;;;5054226;28;20232;-71
2023/05/16 04:50:59;;;;;;;3.30;3.00;;;12.50;99.90;;;;;;5053549;28;20234;-71
2023/05/16 04:53:25;;;;;;;5.78;2.80;;;12.50;99.90;;;;;;5053950;28;20708;-72
2023/05/16 04:55:53;;;;;;;4.55;2.30;;;12.40;99.90;;;;;;5052965;28;20230;-71
2023/05/16 04:58:19;;;;;;;4.10;2.50;;;12.50;99.90;;;;;;5053654;28;20270;-71
2023/05/16 05:00:47;;;;;;;2.95;2.70;;;12.50;99.90;;;;;;5053186;28;20198;-71
2023/05/16 05:03:14;;;;;;;3.40;2.60;;;12.50;99.90;;;;;;5053617;28;20216;-72
2023/05/16 05:05:44;;;;;;;4.72;2.75;;;12.50;99.90;;;;;;5052472;28;20207;-72
2023/05/16 05:08:11;;;;;;;3.45;2.70;;;12.50;99.90;;;;;;5051106;28;20218;-72
2023/05/16 05:10:38;;;;;;;2.88;2.60;;;12.50;99.90;;;;;;5052955;28;20242;-72
2023/05/16 05:13:05;;;;;;;3.92;2.85;;;12.60;99.90;;;;;;5053929;28;20246;-72
2023/05/16 05:15:32;;;;;;;2.95;2.63;;;12.60;99.90;;;;;;5053973;28;20241;-72
2023/05/16 05:17:59;;;;;;;3.53;2.88;;;12.60;99.90;;;;;;5053151;28;20276;-72
2023/05/16 05:20:26;;;;;;;2.53;2.15;;;12.60;99.90;;;;;;5053458;28;20214;-74
2023/05/16 05:22:54;;;;;;;3.63;3.15;;;12.50;99.90;;;;;;5050496;28;20742;-73
2023/05/16 05:25:21;;;;;;;2.38;2.17;;;12.60;99.90;;;;;;5052642;28;20251;-74
2023/05/16 05:27:48;;;;;;;3.08;2.65;;;12.60;99.90;;;;;;5052654;28;20238;-75
2023/05/16 05:30:15;;;;;;;3.30;2.10;;;12.60;99.90;;;;;;5053309;28;20242;-71
2023/05/16 05:32:42;;;;;;;3.88;3.10;;;12.60;99.90;;;;;;5052197;28;20213;-70
2023/05/16 05:35:10;;;;;;;3.15;2.45;;;12.60;99.90;;;;;;5052948;28;20242;-70
2023/05/16 05:37:36;;;;;;;2.60;2.40;;;12.60;99.90;;;;;;5051707;28;20231;-70
2023/05/16 05:40:06;;;;;;;2.65;2.17;;;12.60;99.90;;;;;;5046275;28;20238;-70
2023/05/16 05:42:34;;;;;;;2.28;2.08;;;12.60;99.90;;;;;;5044947;28;20683;-70
2023/05/16 05:45:01;;;;;;;3.67;2.80;;;12.70;99.90;;;;;;5052718;28;20203;-70
2023/05/16 05:47:27;;;;;;;3.13;2.80;;;12.80;99.90;;;;;;5052933;28;20238;-70
2023/05/16 05:49:54;;;;;;;2.83;2.63;;;12.70;99.90;;;;;;5051364;28;20265;-70
2023/05/16 05:52:21;;;;;;;3.42;3.13;;;12.60;99.90;;;;;;5052445;28;20673;-70
2023/05/16 05:54:48;;;;;;;3.30;3.00;;;12.60;99.90;;;;;;5052562;28;20286;-70
2023/05/16 05:57:16;;;;;;;5.68;3.17;;;12.50;99.90;;;;;;5052623;28;20672;-70
2023/05/16 05:59:43;;;;;;;2.63;2.42;;;12.50;99.90;;;;;;5051851;28;20249;-70
2023/05/16 06:02:10;;;;;;;3.13;2.83;;;12.50;99.90;;;;;;5052048;28;20637;-70
2023/05/16 06:04:37;;;;;;;3.67;2.90;;;12.40;99.90;;;;;;5052514;28;20257;-73
2023/05/16 06:07:05;;;;;;;2.95;2.72;;;12.50;99.90;;;;;;5052912;28;20246;-74
2023/05/16 06:09:31;;;;;;;3.72;3.00;;;12.50;99.90;;;;;;5046380;28;20273;-74
2023/05/16 06:11:58;;;;;;;3.72;3.20;;;12.40;99.90;;;;;;5051970;28;20307;-75
2023/05/16 06:14:27;;;;;;;3.17;2.88;;;12.20;99.90;;;;;;5051224;28;20234;-74
2023/05/16 06:16:54;;;;;;;3.63;3.25;;;12.20;99.90;;;;;;5050595;28;20262;-75
2023/05/16 06:19:20;;;;;;;5.38;3.60;;;12.20;99.90;;;;;;5050291;28;20292;-75
2023/05/16 06:21:47;;;;;;;3.22;2.92;;;12.20;99.90;;;;;;5052024;28;20276;-76
2023/05/16 06:24:14;;;;;;;4.13;3.67;;;12.20;99.90;;;;;;5052373;28;20234;-75
2023/05/16 06:26:41;;;;;;;4.07;3.60;;;12.30;99.90;;;;;;5051981;28;20251;-75
2023/05/16 06:29:08;;;;;;;7.82;3.47;;;12.30;99.90;;;;;;5052376;28;20234;-74
2023/05/16 06:31:36;;;;;;;3.63;3.13;;;12.40;99.90;;;;;;5052127;28;20241;-75
2023/05/16 06:34:03;;;;;;;5.25;4.10;;;12.40;99.90;;;;;;5052267;28;20676;-75
2023/05/16 06:36:30;;;;;;;3.88;3.45;;;12.40;99.90;;;;;;5051294;28;20234;-75
2023/05/16 06:38:57;;;;;;;3.42;3.13;;;12.50;99.90;;;;;;5051480;28;20237;-75
2023/05/16 06:41:25;;;;;;;4.45;3.80;;;12.50;99.90;;;;;;5052029;28;20287;-75
2023/05/16 06:43:52;;;;;;;3.42;3.13;;;12.50;99.90;;;;;;5051626;28;20290;-75
2023/05/16 06:46:19;;;;;;;3.45;2.75;;;12.50;99.90;;;;;;5051704;28;20203;-75
2023/05/16 06:48:47;;;;;;;5.18;3.45;;;12.60;99.90;;;;;;5051558;28;20632;-75
2023/05/16 06:51:14;;;;;;;6.22;3.65;;;12.50;99.90;;;;;;5051768;28;20250;-75
2023/05/16 06:53:42;;;;;;;4.72;3.03;;;12.70;99.90;;;;;;5050616;28;20234;-75
2023/05/16 06:56:09;;;;;;;3.42;2.25;;;12.70;99.90;;;;;;5051712;28;20593;-76
2023/05/16 06:58:36;;;;;;;3.45;3.15;;;12.70;99.90;;;;;;5051948;28;20321;-75
2023/05/16 07:01:02;;;;;;;3.90;2.58;;;12.80;99.90;;;;;;5051545;28;20203;-76
2023/05/16 07:03:30;;;;;;;5.25;3.15;;;12.80;99.90;;;;;;5051793;28;20285;-75
2023/05/16 07:05:58;;;;;;;6.25;3.00;;;12.90;99.90;;;;;;5051229;28;20210;-75
2023/05/16 07:08:25;;;;;;;3.08;2.88;;;12.90;99.90;;;;;;5051278;28;20693;-75
2023/05/16 07:10:52;;;;;;;2.60;2.40;;;13.00;99.90;;;;;;5051044;28;20238;-75
2023/05/16 07:13:20;;;;;;;2.92;2.65;;;13.00;99.90;;;;;;5051050;28;20245;-75
2023/05/16 07:15:46;;;;;;;3.20;2.55;;;12.90;99.90;;;;;;5050741;28;20245;-75
2023/05/16 07:18:13;;;;;;;17.13;6.00;;;12.90;99.90;;;;;;5051250;28;20288;-74
2023/05/16 07:20:40;;;;;;;15.80;5.38;;;12.90;99.90;;;;;;5050983;28;20199;-74
2023/05/16 07:23:09;;;;;;;19.90;5.75;;;12.90;99.90;;;;;;5051233;28;20298;-75
2023/05/16 07:25:36;;;;;;;2.83;2.50;;;13.00;99.90;;;;;;5051125;28;20235;-75
2023/05/16 07:28:03;;;;;;;3.05;2.83;;;13.00;99.90;;;;;;5051280;28;20232;-74
2023/05/16 07:30:30;;;;;;;3.10;2.80;;;13.00;99.90;;;;;;5051049;28;20269;-75
2023/05/16 07:32:57;;;;;;;4.10;3.10;;;13.00;99.90;;;;;;5050868;28;20637;-76
2023/05/16 07:35:24;;;;;;;3.92;3.05;;;13.10;99.90;;;;;;5051089;28;20203;-77
2023/05/16 07:37:51;;;;;;;3.75;3.08;;;13.10;99.90;;;;;;5050680;28;20254;-77
2023/05/16 07:40:20;;;;;;;2.78;2.55;;;13.30;99.90;;;;;;5050939;28;20234;-77
2023/05/16 07:42:46;;;;;;;4.25;2.50;;;13.50;99.90;;;;;;5050868;28;20209;-74
2023/05/16 07:45:13;;;;;;;3.55;3.25;;;13.50;99.90;;;;;;5050835;28;20257;-74
2023/05/16 07:47:40;;;;;;;3.00;2.70;;;13.50;99.90;;;;;;5050512;28;20238;-75
2023/05/16 07:50:08;;;;;;;3.33;2.20;;;13.40;99.90;;;;;;5050747;28;20210;-74
2023/05/16 07:52:35;;;;;;;3.80;3.00;;;13.30;99.90;;;;;;5051193;28;20290;-74
2023/05/16 07:55:02;;;;;;;3.42;3.10;;;13.30;99.90;;;;;;5050577;28;20249;-74
2023/05/16 07:57:31;;;;;;;3.17;2.97;;;13.20;99.90;;;;;;5050833;28;20280;-74
2023/05/16 07:59:58;;;;;;;3.03;2.72;;;13.30;99.90;;;;;;5050218;28;20261;-75
2023/05/16 08:02:29;;;;;;;3.97;2.90;;;13.40;99.90;;;;;;5050300;28;20242;-75
2023/05/16 08:04:56;;;;;;;3.05;2.85;;;13.50;99.90;;;;;;5050435;28;20708;-75
2023/05/16 08:07:23;;;;;;;2.75;2.55;;;13.40;99.90;;;;;;5050670;28;20213;-74
2023/05/16 08:09:50;;;;;;;2.63;2.42;;;13.50;99.90;;;;;;5050313;28;20667;-76
2023/05/16 08:12:17;;;;;;;2.60;2.40;;;13.70;99.90;;;;;;5050794;28;20234;-75
2023/05/16 08:14:45;;;;;;;4.53;3.20;;;13.70;99.90;;;;;;5049950;28;20238;-76
2023/05/16 08:17:12;;;;;;;2.53;2.22;;;13.90;99.90;;;;;;5050621;28;20289;-74
2023/05/16 08:19:39;;;;;;;2.47;2.28;;;14.10;99.90;;;;;;5050187;28;20663;-74
2023/05/16 08:22:07;;;;;;;2.80;2.58;;;14.30;99.90;;;;;;5050451;28;20291;-72
2023/05/16 08:24:34;;;;;;;4.75;2.13;;;14.50;99.90;;;;;;5050758;28;20245;-77
2023/05/16 08:27:01;;;;;;;2.45;2.20;;;14.50;99.90;;;;;;5050278;28;20569;-75
2023/05/16 08:29:29;;;;;;;4.85;3.25;;;14.60;99.90;;;;;;5050203;28;20261;-75
2023/05/16 08:31:57;;;;;;;2.78;2.55;;;14.60;99.90;;;;;;5050113;28;20564;-73
2023/05/16 08:34:24;;;;;;;2.88;2.67;;;14.30;99.90;;;;;;5050344;28;20202;-75
2023/05/16 08:36:51;;;;;;;4.57;2.80;;;14.20;99.90;;;;;;5050038;28;20238;-75
2023/05/16 08:39:17;;;;;;;2.55;2.35;;;14.20;99.90;;;;;;5050455;28;20266;-74
2023/05/16 08:41:45;;;;;;;4.07;2.78;;;15.00;99.90;;;;;;5049977;28;20246;-75
2023/05/16 08:44:19;;;;;;;2.95;2.75;;;15.40;99.90;;;;;;5050392;28;20614;-74
2023/05/16 08:46:50;;;;;;;2.63;2.40;;;15.30;99.90;;;;;;5050160;28;20206;-72
2023/05/16 08:49:19;;;;;;;3.83;2.28;;;15.00;99.90;;;;;;5050112;28;20230;-74
2023/05/16 08:51:47;;;;;;;3.17;1.98;;;15.70;99.90;;;;;;5049913;28;20219;-73
2023/05/16 08:54:15;;;;;;;5.15;2.60;;;15.70;99.90;;;;;;5046842;28;20682;-73
2023/05/16 08:56:43;;;;;;;18.45;2.10;;;15.50;99.90;;;;;;5040385;28;20235;-75
2023/05/16 08:59:11;;;;;;;3.60;3.00;;;15.60;99.90;;;;;;5030406;28;20239;-72
2023/05/16 09:01:38;;;;;;;2.50;2.08;;;15.90;99.90;;;;;;5044780;28;20678;-72
2023/05/16 09:04:08;;;;;;;2.28;1.77;;;16.40;99.90;;;;;;5050611;28;20226;-74
2023/05/16 09:06:36;;;;;;;1.85;1.73;;;15.80;99.90;;;;;;5050388;28;20207;-73
2023/05/16 09:09:06;;;;;;;2.75;2.20;;;15.30;99.90;;;;;;5050382;28;20829;-73
2023/05/16 09:11:33;;;;;;;3.20;2.28;;;15.10;99.90;;;;;;5050196;28;20221;-73
2023/05/16 09:14:00;;;;;;;4.32;2.60;;;15.00;99.90;;;;;;5051698;28;20683;-73
2023/05/16 09:16:27;;;;;;;8.10;3.03;;;15.10;99.90;;;;;;5053775;28;20234;-72
2023/05/16 09:18:56;;;;;;;2.40;2.20;;;15.20;99.90;;;;;;5053246;28;20274;-73
2023/05/16 09:21:31;;;;;;;2.00;1.90;;;15.10;99.90;;;;;;5053610;28;20210;-73
2023/05/16 09:24:04;;;;;;;2.75;2.13;;;15.60;99.90;;;;;;5053149;28;20210;-75
2023/05/16 09:26:33;;;;;;;4.30;1.85;;;16.20;99.90;;;;;;5053544;28;20199;-74
2023/05/16 09:29:00;;;;;;;2.67;1.55;;;15.50;99.90;;;;;;5053311;28;20249;-73
2023/05/16 09:31:35;;;;;;;5.20;2.25;;;15.90;99.90;;;;;;5053359;28;20214;-74
2023/05/16 09:34:02;;;;;;;2.35;1.75;;;16.80;99.90;;;;;;5053131;28;20690;-73
2023/05/16 09:36:31;;;;;;;2.53;1.70;;;16.00;99.90;;;;;;5053256;28;20230;-72
2023/05/16 09:38:58;;;;;;;2.15;1.77;;;15.30;99.90;;;;;;5052666;28;20321;-73
2023/05/16 09:41:26;;;;;;;2.80;1.70;;;16.80;99.90;;;;;;5046995;28;20234;-73
2023/05/16 09:43:53;;;;;;;2.03;1.77;;;18.70;99.90;;;;;;5032856;28;20243;-73
2023/05/16 09:46:26;;;;;;;1.65;1.45;;;17.30;99.90;;;;;;5033201;28;20293;-73
2023/05/16 09:48:53;;;;;;;3.13;1.77;;;16.60;99.90;;;;;;5032614;28;20218;-74
2023/05/16 09:51:22;;;;;;;1.52;1.42;;;17.30;99.90;;;;;;5032786;28;20654;-73
2023/05/16 09:53:49;;;;;;;3.30;2.05;;;18.00;99.90;;;;;;5032572;28;20242;-72
2023/05/16 09:56:16;;;;;;;1.60;1.50;;;17.10;99.90;;;;;;5039282;28;20234;-74
2023/05/16 09:58:46;;;;;;;3.30;1.70;;;16.40;99.90;;;;;;5047033;28;20266;-73
2023/05/16 10:01:13;;;;;;;4.40;1.80;;;16.00;99.90;;;;;;5048848;28;20210;-72
2023/05/16 10:03:42;;;;;;;1.83;1.60;;;15.70;99.90;;;;;;5042912;28;20234;-73
2023/05/16 10:06:10;;;;;;;2.92;1.90;;;15.50;99.90;;;;;;5052523;28;20297;-73
2023/05/16 10:08:38;;;;;;;1.98;1.45;;;15.70;99.90;;;;;;5048834;28;20199;-73
2023/05/16 10:11:06;;;;;;;1.90;1.70;;;15.60;99.90;;;;;;5037618;28;20203;-72
2023/05/16 10:13:34;;;;;;;5.53;2.42;;;15.30;99.90;;;;;;5046972;28;20231;-79
2023/05/16 10:16:07;;;;;;;3.10;2.20;;;15.40;99.90;;;;;;5057149;28;20234;-75
2023/05/16 10:18:36;;;;;;;2.63;2.42;;;15.40;99.90;;;;;;5065157;28;20234;-77
2023/05/16 10:21:07;;;;;;;3.03;2.03;;;15.30;99.90;;;;;;5054066;28;20211;-78
2023/05/16 10:23:34;;;;;;;3.33;2.05;;;15.10;99.90;;;;;;5072351;28;20237;-75
2023/05/16 10:26:04;;;;;;;2.50;2.05;;;14.80;99.90;;;;;;5072118;28;20202;-75
2023/05/16 10:28:32;;;;;;;2.00;1.73;;;14.70;99.90;;;;;;5051799;28;20231;-74
2023/05/16 10:31:00;;;;;;;2.30;2.10;;;14.80;99.90;;;;;;5050455;28;20295;-75
2023/05/16 10:33:28;;;;;;;2.83;1.83;;;14.70;99.90;;;;;;5055381;28;20712;-77
2023/05/16 10:35:56;;;;;;;2.33;1.88;;;14.70;99.90;;;;;;5052983;28;20265;-78
2023/05/16 10:38:24;;;;;;;3.53;1.95;;;14.70;99.90;;;;;;5050371;28;20257;-74
2023/05/16 10:40:51;;;;;;;3.28;1.90;;;14.90;99.90;;;;;;5051570;28;20210;-73
2023/05/16 10:43:25;;;;;;;2.13;1.98;;;15.00;99.90;;;;;;5051632;28;20705;-76
2023/05/16 10:45:56;;;;;;;2.38;2.17;;;15.30;99.90;;;;;;5051335;28;20202;-77
2023/05/16 10:48:31;;;;;;;2.95;2.38;;;16.00;99.90;;;;;;5051796;28;20246;-75
2023/05/16 10:50:58;;;;;;;2.08;1.88;;;16.40;99.90;;;;;;5051040;28;20260;-76
2023/05/16 10:53:31;;;;;;;2.80;2.60;;;16.80;99.90;;;;;;5051501;28;20199;-77
2023/05/16 10:56:12;;;;;;;2.40;2.20;;;17.20;99.90;;;;;;5051254;28;20562;-77
2023/05/16 10:58:43;;;;;;;2.17;1.60;;;17.70;99.90;;;;;;5051074;28;20320;-76
2023/05/16 11:01:28;;;;;;;1.60;1.50;;;17.50;99.90;;;;;;5051441;28;20246;-73
2023/05/16 11:04:07;;;;;;;1.80;1.70;;;16.90;99.90;;;;;;5049778;28;20782;-76
2023/05/16 11:06:35;;;;;;;2.15;1.70;;;16.20;99.90;;;;;;5050979;28;20710;-76
2023/05/16 11:09:08;;;;;;;2.47;2.15;;;16.20;99.90;;;;;;5050931;28;20682;-75
2023/05/16 11:11:43;;;;;;;4.15;2.15;;;16.30;99.90;;;;;;5053477;28;20300;-74
2023/05/16 11:14:17;;;;;;;2.45;2.25;;;16.40;99.90;;;;;;5051310;28;20241;-74
2023/05/16 11:16:49;;;;;;;3.80;1.60;;;16.20;99.90;;;;;;5046471;28;20220;-74
2023/05/16 11:19:29;;;;;;;5.05;3.33;;;16.00;99.90;;;;;;5051085;28;20329;-75
2023/05/16 11:22:15;;;;;;;3.05;2.10;;;15.90;99.90;;;;;;5050651;28;20206;-73
2023/05/16 11:24:59;;;;;;;2.25;1.73;;;16.10;99.90;;;;;;5050737;28;20277;-74
2023/05/16 11:27:28;;;;;;;3.25;1.77;;;16.50;99.90;;;;;;5051077;28;20245;-76
2023/05/16 11:29:59;;;;;;;3.28;1.77;;;16.70;99.90;;;;;;5050863;28;20632;-76
2023/05/16 11:32:26;;;;;;;2.10;1.23;;;16.90;99.90;;;;;;5050497;28;20207;-77
2023/05/16 11:34:55;;;;;;;3.47;1.70;;;17.30;99.90;;;;;;5049958;28;20217;-76
2023/05/16 11:37:22;;;;;;;2.53;1.67;;;17.90;99.90;;;;;;5050031;28;20674;-79
2023/05/16 11:39:49;;;;;;;2.80;1.00;;;18.20;99.90;;;;;;5049605;28;20266;-77
2023/05/16 11:42:16;;;;;;;1.77;1.13;;;17.50;99.90;;;;;;5049208;28;20281;-77
2023/05/16 11:44:44;;;;;;;1.55;1.45;;;17.20;99.90;;;;;;5049809;28;20210;-78
2023/05/16 11:47:11;;;;;;;3.33;1.48;;;17.00;99.90;;;;;;5049612;28;20240;-75
2023/05/16 11:49:38;;;;;;;2.03;1.55;;;16.80;99.90;;;;;;5050198;28;20608;-75
2023/05/16 11:52:09;;;;;;;1.98;1.48;;;17.00;99.90;;;;;;5045727;28;20234;-77
2023/05/16 11:54:36;;;;;;;1.33;1.15;;;17.60;99.90;;;;;;5038871;28;20211;-77
2023/05/16 11:57:03;;;;;;;1.67;1.40;;;18.10;99.90;;;;;;5040938;28;20211;-77
2023/05/16 11:59:30;;;;;;;3.97;1.63;;;18.30;99.90;;;;;;5039932;28;20226;-77
2023/05/16 12:01:57;;;;;;;1.73;1.45;;;17.60;99.90;;;;;;5049962;28;21004;-74
2023/05/16 12:04:25;;;;;;;2.33;1.83;;;17.30;99.90;;;;;;5050738;28;20202;-75
2023/05/16 12:07:00;;;;;;;4.82;1.70;;;17.40;99.90;;;;;;5049818;28;20207;-73
2023/05/16 12:09:29;;;;;;;1.60;1.23;;;17.40;99.90;;;;;;5049994;28;20210;-76
2023/05/16 12:11:56;;;;;;;2.00;1.77;;;17.50;99.90;;;;;;5050156;28;20261;-74
2023/05/16 12:14:24;;;;;;;1.92;1.33;;;17.40;99.90;;;;;;5050225;28;20246;-74
2023/05/16 12:16:52;;;;;;;3.85;1.20;;;17.10;99.90;;;;;;5049289;28;20206;-73
2023/05/16 12:19:21;;;;;;;3.03;1.38;;;17.10;99.90;;;;;;5050169;28;20731;-74
2023/05/16 12:21:48;;;;;;;1.63;1.42;;;17.30;99.90;;;;;;5049204;28;20211;-79
2023/05/16 12:24:16;;;;;;;12.70;1.90;;;17.50;99.90;;;;;;5050573;28;20225;-79
2023/05/16 12:26:44;;;;;;;3.20;1.77;;;17.30;99.90;;;;;;5050064;28;20207;-80
2023/05/16 12:29:11;;;;;;;3.20;1.45;;;17.00;99.90;;;;;;5050451;28;20207;-77
2023/05/16 12:31:40;;;;;;;2.03;1.83;;;17.30;99.90;;;;;;5043823;28;20201;-79
2023/05/16 12:34:17;;;;;;;3.25;1.20;;;18.10;99.90;;;;;;5030292;28;20642;-80
2023/05/16 12:36:44;;;;;;;3.38;1.73;;;18.10;99.90;;;;;;5030173;28;20241;-81
2023/05/16 12:39:14;;;;;;;4.85;1.88;;;18.00;99.90;;;;;;5030413;28;20312;-78
2023/05/16 12:41:44;;;;;;;3.08;2.08;;;17.50;99.90;;;;;;5030192;28;20292;-78
2023/05/16 12:44:13;;;;;;;3.45;1.95;;;17.30;99.90;;;;;;5047682;28;20230;-78
2023/05/16 12:46:44;;;;;;;2.63;1.42;;;17.20;99.90;;;;;;5050088;28;20571;-77
2023/05/16 12:49:11;;;;;;;1.98;1.52;;;17.10;99.90;;;;;;5053559;28;20207;-80
2023/05/16 12:51:38;;;;;;;2.10;1.73;;;16.90;99.90;;;;;;5052686;28;20242;-74